Time;durP1;ratioP1;P1;durP2;ratioP2;P2;SDS_P1;SDS_P2;PMS_P1;PMS_P2;Temp;Humidity;BMP_temperature;BMP_pressure;BME280_temperature;BME280_humidity;BME280_pressure;Samples;Min_cycle;Max_cycle;Signal;HPM_P1;HPM_P2
2023/01/21 00:01:02;;;;;;;26.77;13.07;;;;;;;;;;5091894;28;20097;-73
2023/01/21 00:03:28;;;;;;;26.13;13.35;;;;;;;;;;5091334;28;20582;-70
2023/01/21 00:05:53;;;;;;;26.85;13.25;;;;;;;;;;5091580;28;20032;-73
2023/01/21 00:08:18;;;;;;;26.42;12.55;;;;;;;;;;5091636;28;20017;-71
2023/01/21 00:10:44;;;;;;;22.98;12.10;;;;;;;;;;5091384;28;20050;-69
2023/01/21 00:13:09;;;;;;;23.92;11.70;;;;;;;;;;5091493;28;20028;-70
2023/01/21 00:15:35;;;;;;;20.08;11.27;;;;;;;;;;5091353;28;20506;-70
2023/01/21 00:18:01;;;;;;;22.88;10.65;;;;;;;;;;5091731;28;20024;-69
2023/01/21 00:20:26;;;;;;;22.10;10.40;;;;;;;;;;5091116;28;20027;-72
2023/01/21 00:22:54;;;;;;;20.42;10.07;;;;;;;;;;5091427;28;20024;-68
2023/01/21 00:25:20;;;;;;;22.17;10.43;;;;;;;;;;5091656;28;20077;-70
2023/01/21 00:27:45;;;;;;;20.83;10.85;;;;;;;;;;5091138;28;20020;-74
2023/01/21 00:30:11;;;;;;;20.10;10.88;;;;;;;;;;5091234;28;20024;-75
2023/01/21 00:32:37;;;;;;;19.90;10.55;;;;;;;;;;5091089;28;20085;-74
2023/01/21 00:35:03;;;;;;;22.23;11.23;;;;;;;;;;5090892;28;20511;-71
2023/01/21 00:37:28;;;;;;;22.77;10.90;;;;;;;;;;5091001;28;20024;-72
2023/01/21 00:39:53;;;;;;;20.92;11.20;;;;;;;;;;5090552;28;20032;-71
2023/01/21 00:42:19;;;;;;;21.98;10.43;;;;;;;;;;5091011;28;20024;-71
2023/01/21 00:44:44;;;;;;;21.00;10.82;;;;;;;;;;5090792;28;20031;-76
2023/01/21 00:47:09;;;;;;;23.27;10.65;;;;;;;;;;5090752;28;20027;-73
2023/01/21 00:49:35;;;;;;;21.92;10.55;;;;;;;;;;5090384;28;20034;-75
2023/01/21 00:52:00;;;;;;;19.60;10.45;;;;;;;;;;5090604;28;20027;-70
2023/01/21 00:54:26;;;;;;;23.02;11.35;;;;;;;;;;5090739;28;20024;-74
2023/01/21 00:56:51;;;;;;;20.98;11.02;;;;;;;;;;5091008;28;20040;-71
2023/01/21 00:59:16;;;;;;;23.63;11.30;;;;;;;;;;5090801;28;20032;-75
2023/01/21 01:01:42;;;;;;;20.00;9.98;;;;;;;;;;5090527;28;20036;-74
2023/01/21 01:04:09;;;;;;;22.08;10.68;;;;;;;;;;5090186;28;20028;-75
2023/01/21 01:06:35;;;;;;;21.35;10.82;;;;;;;;;;5090348;28;20031;-75
2023/01/21 01:09:00;;;;;;;20.75;10.48;;;;;;;;;;5092258;28;20024;-76
2023/01/21 01:11:27;;;;;;;21.48;10.73;;;;;;;;;;5093220;28;20487;-74
2023/01/21 01:13:53;;;;;;;21.58;10.50;;;;;;;;;;5092779;28;20028;-76
2023/01/21 01:16:19;;;;;;;20.90;10.55;;;;;;;;;;5091620;28;20043;-73
2023/01/21 01:18:44;;;;;;;24.25;11.27;;;;;;;;;;5091486;28;20700;-74
2023/01/21 01:21:15;;;;;;;28.52;11.32;;;;;;;;;;5090664;28;20103;-72
2023/01/21 01:23:41;;;;;;;;;;;;;;;;;;5090777;28;20495;-75
2023/01/21 01:26:10;;;;;;;19.95;9.88;;;;;;;;;;5090421;28;19919;-72
2023/01/21 01:28:35;;;;;;;19.10;10.35;;;;;;;;;;5090140;28;20115;-72
2023/01/21 01:31:05;;;;;;;23.02;10.73;;;;;;;;;;5072093;28;20111;-71
2023/01/21 01:33:30;;;;;;;22.20;9.82;;;;;;;;;;5089530;28;20069;-70
2023/01/21 01:36:04;;;;;;;19.55;10.35;;;;;;;;;;5090377;28;20020;-71
2023/01/21 01:38:29;;;;;;;20.92;10.27;;;;;;;;;;5090187;28;20016;-72
2023/01/21 01:40:55;;;;;;;21.30;10.70;;;;;;;;;;5090149;28;20077;-72
2023/01/21 01:43:43;;;;;;;19.55;10.20;;;;;;;;;;5090031;28;20467;-68
2023/01/21 01:46:09;;;;;;;18.63;9.63;;;;;;;;;;5090072;28;20032;-70
2023/01/21 01:48:34;;;;;;;21.08;10.65;;;;;;;;;;5089182;28;20035;-71
2023/01/21 01:51:03;;;;;;;20.00;10.48;;;;;;;;;;5089867;28;20028;-68
2023/01/21 01:53:30;;;;;;;19.13;9.82;;;;;;;;;;5071506;28;20036;-70
2023/01/21 01:55:56;;;;;;;17.85;10.07;;;;;;;;;;5090183;28;20055;-70
2023/01/21 01:58:23;;;;;;;22.02;10.10;;;;;;;;;;5089884;28;20400;-69
2023/01/21 02:00:48;;;;;;;23.00;10.00;;;;;;;;;;5089953;28;20046;-69
2023/01/21 02:05:59;;;;;;;16.75;9.18;;;;;;;;;;5089945;28;20058;-69
2023/01/21 02:08:26;;;;;;;20.90;10.10;;;;;;;;;;5089575;28;20807;-71
2023/01/21 02:10:54;;;;;;;22.52;10.13;;;;;;;;;;5089818;28;20038;-70
2023/01/21 02:13:22;;;;;;;18.88;9.27;;;;;;;;;;5089563;28;20028;-69
2023/01/21 02:16:13;;;;;;;18.73;9.45;;;;;;;;;;5089607;28;20047;-69
2023/01/21 02:19:06;;;;;;;14.75;8.38;;;;;;;;;;5057749;28;20043;-69
2023/01/21 02:22:09;;;;;;;16.17;8.13;;;;;;;;;;5089766;28;20503;-70
2023/01/21 02:24:43;;;;;;;16.08;7.78;;;;;;;;;;5089372;28;20024;-73
2023/01/21 02:27:39;;;;;;;16.55;7.80;;;;;;;;;;5089342;28;20066;-69
2023/01/21 02:30:32;;;;;;;18.90;8.05;;;;;;;;;;5089590;28;20101;-70
2023/01/21 02:33:15;;;;;;;13.38;7.15;;;;;;;;;;5089523;28;20031;-72
2023/01/21 02:36:09;;;;;;;12.15;6.80;;;;;;;;;;5089578;28;20169;-71
2023/01/21 02:38:49;;;;;;;13.55;7.15;;;;;;;;;;5089408;28;20375;-70
2023/01/21 02:41:30;;;;;;;13.68;7.07;;;;;;;;;;5089739;28;20090;-70
2023/01/21 02:44:17;;;;;;;14.27;7.15;;;;;;;;;;5089144;28;20032;-71
2023/01/21 02:46:46;;;;;;;19.38;7.38;;;;;;;;;;5089375;28;20108;-73
2023/01/21 02:49:22;;;;;;;15.00;7.18;;;;;;;;;;5088766;28;20032;-70
2023/01/21 02:51:47;;;;;;;13.63;6.88;;;;;;;;;;5089574;28;20020;-73
2023/01/21 02:54:39;;;;;;;13.77;7.07;;;;;;;;;;5088987;28;20449;-72
2023/01/21 02:57:40;;;;;;;12.13;6.32;;;;;;;;;;5078333;28;20047;-74
2023/01/21 03:00:15;;;;;;;14.93;7.28;;;;;;;;;;5063692;28;20047;-77
2023/01/21 03:02:53;;;;;;;14.10;6.20;;;;;;;;;;5088975;28;20064;-78
2023/01/21 03:05:22;;;;;;;13.43;6.22;;;;;;;;;;5092275;28;20094;-72
2023/01/21 03:07:52;;;;;;;14.60;5.78;;;;;;;;;;5092623;28;20070;-76
2023/01/21 03:10:29;;;;;;;13.68;6.32;;;;;;;;;;5074915;28;20070;-71
2023/01/21 03:13:02;;;;;;;14.57;5.53;;;;;;;;;;5092939;28;20063;-70
2023/01/21 03:18:42;;;;;;;11.85;5.70;;;;;;;;;;5092442;28;20395;-76
2023/01/21 03:21:14;;;;;;;13.10;5.38;;;;;;;;;;5092815;28;20028;-71
2023/01/21 03:23:43;;;;;;;14.27;6.03;;;;;;;;;;5092271;28;20028;-74
2023/01/21 03:26:12;;;;;;;11.85;5.57;;;;;;;;;;5092252;28;20063;-73
2023/01/21 03:28:43;;;;;;;10.80;5.13;;;;;;;;;;5074066;28;20024;-72
2023/01/21 03:31:13;;;;;;;11.60;5.20;;;;;;;;;;5092350;28;20047;-76
2023/01/21 03:33:42;;;;;;;13.68;6.03;;;;;;;;;;5091987;28;20073;-74
2023/01/21 03:36:15;;;;;;;10.65;5.60;;;;;;;;;;5092201;28;20028;-74
2023/01/21 03:38:46;;;;;;;13.77;6.28;;;;;;;;;;5092169;28;20043;-74
2023/01/21 03:41:32;;;;;;;10.98;5.55;;;;;;;;;;5092655;28;20028;-74
2023/01/21 03:43:58;;;;;;;12.25;5.90;;;;;;;;;;5092073;28;20055;-69
2023/01/21 03:46:33;;;;;;;14.77;6.10;;;;;;;;;;5091844;28;20070;-71
2023/01/21 03:49:05;;;;;;;11.93;6.10;;;;;;;;;;5091434;28;20024;-71
2023/01/21 03:51:41;;;;;;;10.93;5.82;;;;;;;;;;5092006;28;20077;-68
2023/01/21 03:54:06;;;;;;;14.95;6.10;;;;;;;;;;5091795;28;20097;-70
2023/01/21 03:56:31;;;;;;;13.70;6.30;;;;;;;;;;5091967;28;20387;-72
2023/01/21 03:58:57;;;;;;;17.77;6.50;;;;;;;;;;5091926;28;20021;-71
2023/01/21 04:01:22;;;;;;;15.05;6.45;;;;;;;;;;5091922;28;20036;-70
2023/01/21 04:03:48;;;;;;;13.20;6.22;;;;;;;;;;5091215;28;20027;-73
2023/01/21 04:06:15;;;;;;;14.27;6.72;;;;;;;;;;5091523;28;20114;-74
2023/01/21 04:08:40;;;;;;;15.05;6.30;;;;;;;;;;5091577;28;20027;-71
2023/01/21 04:11:05;;;;;;;16.63;5.97;;;;;;;;;;5091721;28;20391;-71
2023/01/21 04:13:31;;;;;;;13.02;6.03;;;;;;;;;;5091557;28;20027;-70
2023/01/21 04:15:56;;;;;;;10.43;5.85;;;;;;;;;;5090594;28;20048;-69
2023/01/21 04:18:22;;;;;;;9.93;5.68;;;;;;;;;;5091568;28;20039;-70
2023/01/21 04:20:47;;;;;;;13.20;6.03;;;;;;;;;;5091091;28;20028;-74
2023/01/21 04:23:12;;;;;;;13.60;6.28;;;;;;;;;;5091589;28;20074;-73
2023/01/21 04:25:38;;;;;;;11.50;6.10;;;;;;;;;;5090984;28;20089;-70
2023/01/21 04:28:04;;;;;;;11.80;6.40;;;;;;;;;;5091353;28;20032;-70
2023/01/21 04:30:29;;;;;;;10.35;5.60;;;;;;;;;;5091239;28;20032;-70
2023/01/21 04:32:54;;;;;;;13.52;6.13;;;;;;;;;;5091398;28;20050;-68
2023/01/21 04:35:20;;;;;;;11.80;5.70;;;;;;;;;;5072449;28;20062;-70
2023/01/21 04:37:45;;;;;;;15.65;6.10;;;;;;;;;;5091303;28;20031;-69
2023/01/21 04:40:11;;;;;;;10.75;5.40;;;;;;;;;;5091060;28;20024;-72
2023/01/21 04:42:36;;;;;;;11.73;5.22;;;;;;;;;;5091172;28;20024;-70
2023/01/21 04:45:03;;;;;;;12.15;5.60;;;;;;;;;;5090483;28;20028;-70
2023/01/21 04:47:28;;;;;;;10.02;4.88;;;;;;;;;;5090830;28;20037;-74
2023/01/21 04:49:53;;;;;;;10.93;5.50;;;;;;;;;;5090341;28;20028;-76
2023/01/21 04:52:19;;;;;;;11.20;5.57;;;;;;;;;;5091040;28;20110;-78
2023/01/21 04:54:44;;;;;;;12.77;4.70;;;;;;;;;;5090621;28;20024;-77
2023/01/21 04:57:10;;;;;;;12.05;4.97;;;;;;;;;;5091185;28;20032;-77
2023/01/21 04:59:36;;;;;;;9.93;4.40;;;;;;;;;;5090749;28;20626;-79
2023/01/21 05:02:01;;;;;;;12.65;4.85;;;;;;;;;;5090710;28;20051;-78
2023/01/21 05:04:27;;;;;;;11.18;4.53;;;;;;;;;;5090224;28;20028;-78
2023/01/21 05:06:52;;;;;;;9.95;4.78;;;;;;;;;;5090275;28;20059;-77
2023/01/21 05:09:17;;;;;;;10.40;4.68;;;;;;;;;;5090405;28;20849;-78
2023/01/21 05:11:43;;;;;;;11.02;4.50;;;;;;;;;;5090604;28;20030;-77
2023/01/21 05:14:08;;;;;;;10.68;4.60;;;;;;;;;;5090416;28;20553;-79
2023/01/21 05:16:33;;;;;;;8.60;4.18;;;;;;;;;;5090335;28;20100;-76
2023/01/21 05:18:59;;;;;;;10.93;4.07;;;;;;;;;;5090195;28;20391;-75
2023/01/21 05:21:24;;;;;;;8.75;4.38;;;;;;;;;;5090219;28;20060;-72
2023/01/21 05:23:49;;;;;;;9.38;4.50;;;;;;;;;;5090353;28;20077;-79
2023/01/21 05:26:15;;;;;;;11.88;3.83;;;;;;;;;;5089442;28;20464;-76
2023/01/21 05:28:40;;;;;;;9.07;4.00;;;;;;;;;;5090791;28;20043;-78
2023/01/21 05:31:06;;;;;;;9.15;3.72;;;;;;;;;;5090006;28;20472;-80
2023/01/21 05:33:33;;;;;;;10.82;3.72;;;;;;;;;;5089968;28;20016;-75
2023/01/21 05:35:59;;;;;;;9.38;3.80;;;;;;;;;;5090037;28;20028;-75
2023/01/21 05:38:24;;;;;;;9.50;3.85;;;;;;;;;;5090075;28;20108;-76
2023/01/21 05:40:55;;;;;;;8.35;3.50;;;;;;;;;;5090079;28;20048;-77
2023/01/21 05:43:20;;;;;;;7.15;3.53;;;;;;;;;;5090123;28;20024;-76
2023/01/21 05:45:46;;;;;;;7.30;3.63;;;;;;;;;;5089370;28;20032;-79
2023/01/21 05:48:11;;;;;;;5.97;3.22;;;;;;;;;;5090051;28;20028;-78
2023/01/21 05:50:37;;;;;;;8.27;3.15;;;;;;;;;;5089411;28;20020;-76
2023/01/21 05:53:03;;;;;;;9.20;3.00;;;;;;;;;;5090070;28;20030;-76
2023/01/21 05:55:29;;;;;;;6.78;2.83;;;;;;;;;;5089830;28;20028;-77
2023/01/21 05:57:54;;;;;;;8.05;3.05;;;;;;;;;;5090110;28;20024;-74
2023/01/21 06:00:20;;;;;;;6.70;3.05;;;;;;;;;;5089781;28;20364;-73
2023/01/21 06:02:45;;;;;;;5.43;3.03;;;;;;;;;;5089949;28;20541;-79
2023/01/21 06:05:11;;;;;;;7.93;2.80;;;;;;;;;;5089100;28;20016;-75
2023/01/21 06:07:36;;;;;;;6.57;2.85;;;;;;;;;;5089827;28;20028;-78
2023/01/21 06:10:01;;;;;;;9.25;3.08;;;;;;;;;;5089719;28;20076;-79
2023/01/21 06:12:27;;;;;;;6.82;2.60;;;;;;;;;;5089823;28;20024;-77
2023/01/21 06:14:52;;;;;;;6.18;2.75;;;;;;;;;;5089731;28;20028;-78
2023/01/21 06:17:18;;;;;;;7.47;2.80;;;;;;;;;;5089682;28;20036;-76
2023/01/21 06:19:43;;;;;;;6.53;2.40;;;;;;;;;;5089298;28;20035;-74
2023/01/21 06:22:15;;;;;;;7.38;2.60;;;;;;;;;;5089742;28;20047;-75
2023/01/21 06:24:41;;;;;;;5.35;2.45;;;;;;;;;;5089680;28;20034;-76
2023/01/21 06:27:06;;;;;;;5.78;2.30;;;;;;;;;;5089199;28;20107;-74
2023/01/21 06:29:31;;;;;;;6.85;2.35;;;;;;;;;;5089579;28;20115;-76
2023/01/21 06:31:57;;;;;;;9.40;2.92;;;;;;;;;;5089459;28;20016;-77
2023/01/21 06:34:22;;;;;;;8.50;2.33;;;;;;;;;;5089433;28;20024;-70
2023/01/21 06:36:48;;;;;;;3.88;2.00;;;;;;;;;;5089292;28;20032;-72
2023/01/21 06:39:13;;;;;;;6.20;2.42;;;;;;;;;;5092031;28;20107;-69
2023/01/21 06:41:39;;;;;;;5.35;2.30;;;;;;;;;;5093240;28;20046;-72
2023/01/21 06:44:04;;;;;;;6.28;2.50;;;;;;;;;;5093299;28;20027;-73
2023/01/21 06:46:30;;;;;;;4.72;2.38;;;;;;;;;;5092737;28;20161;-71
2023/01/21 06:48:55;;;;;;;6.45;2.72;;;;;;;;;;5093173;28;20027;-73
2023/01/21 06:51:21;;;;;;;6.38;2.80;;;;;;;;;;5092975;28;20501;-70
2023/01/21 06:53:46;;;;;;;5.55;3.03;;;;;;;;;;5093333;28;20424;-71
2023/01/21 06:56:11;;;;;;;8.57;2.80;;;;;;;;;;5092855;28;20395;-71
2023/01/21 06:58:37;;;;;;;6.82;2.58;;;;;;;;;;5093301;28;20073;-72
2023/01/21 07:01:02;;;;;;;5.97;2.50;;;;;;;;;;5092740;28;20036;-71
2023/01/21 07:03:28;;;;;;;6.10;2.60;;;;;;;;;;5092691;28;20020;-72
2023/01/21 07:05:54;;;;;;;5.95;3.10;;;;;;;;;;5092521;28;20059;-68
2023/01/21 07:08:19;;;;;;;6.68;2.70;;;;;;;;;;5092856;28;20054;-69
2023/01/21 07:10:45;;;;;;;6.93;2.60;;;;;;;;;;5092678;28;20365;-69
2023/01/21 07:13:10;;;;;;;6.20;2.40;;;;;;;;;;5092971;28;20587;-69
2023/01/21 07:15:36;;;;;;;5.00;2.50;;;;;;;;;;5092662;28;20032;-70
2023/01/21 07:18:01;;;;;;;7.35;2.55;;;;;;;;;;5093102;28;20028;-70
2023/01/21 07:20:27;;;;;;;8.60;2.83;;;;;;;;;;5092245;28;20583;-70
2023/01/21 07:22:52;;;;;;;6.80;2.90;;;;;;;;;;5092628;28;20353;-69
2023/01/21 07:25:17;;;;;;;6.32;2.60;;;;;;;;;;5092598;28;20117;-70
2023/01/21 07:27:43;;;;;;;5.43;2.60;;;;;;;;;;5092054;28;20426;-70
2023/01/21 07:30:15;;;;;;;8.25;3.45;;;;;;;;;;5092516;28;20103;-69
2023/01/21 07:32:41;;;;;;;7.05;2.50;;;;;;;;;;5092416;28;20028;-77
2023/01/21 07:35:06;;;;;;;5.78;3.00;;;;;;;;;;5092908;28;20081;-77
2023/01/21 07:37:32;;;;;;;7.53;3.22;;;;;;;;;;5092920;28;20357;-80
2023/01/21 07:39:57;;;;;;;14.45;5.57;;;;;;;;;;5092541;28;20507;-76
2023/01/21 07:42:22;;;;;;;9.93;4.80;;;;;;;;;;5073896;28;20028;-75
2023/01/21 07:44:48;;;;;;;11.98;4.63;;;;;;;;;;5092142;28;20553;-76
2023/01/21 07:47:13;;;;;;;8.15;3.45;;;;;;;;;;5091641;28;20599;-77
2023/01/21 07:49:39;;;;;;;9.23;3.15;;;;;;;;;;5091733;28;20028;-77
2023/01/21 07:52:05;;;;;;;7.25;3.40;;;;;;;;;;5091789;28;20028;-78
2023/01/21 07:54:30;;;;;;;8.05;3.53;;;;;;;;;;5092008;28;20028;-76
2023/01/21 07:56:56;;;;;;;7.38;3.53;;;;;;;;;;5091855;28;20024;-78
2023/01/21 07:59:22;;;;;;;8.32;3.33;;;;;;;;;;5091962;28;20124;-76
2023/01/21 08:01:47;;;;;;;5.88;2.95;;;;;;;;;;5091541;28;20130;-75
2023/01/21 08:04:12;;;;;;;6.30;3.15;;;;;;;;;;5073231;28;20024;-75
2023/01/21 08:06:40;;;;;;;7.32;2.85;;;;;;;;;;5091299;28;20392;-78
2023/01/21 08:09:05;;;;;;;5.03;2.47;;;;;;;;;;5092025;28;20024;-78
2023/01/21 08:11:31;;;;;;;4.43;2.50;;;;;;;;;;5091512;28;20032;-80
2023/01/21 08:13:56;;;;;;;5.47;2.75;;;;;;;;;;5091727;28;20648;-79
2023/01/21 08:16:22;;;;;;;7.30;2.90;;;;;;;;;;5091361;28;20158;-74
2023/01/21 08:18:48;;;;;;;5.25;2.55;;;;;;;;;;5091171;28;20031;-76
2023/01/21 08:21:13;;;;;;;5.07;2.40;;;;;;;;;;5091385;28;20114;-77
2023/01/21 08:23:38;;;;;;;8.02;2.72;;;;;;;;;;5091371;28;20039;-78
2023/01/21 08:26:05;;;;;;;5.78;2.70;;;;;;;;;;5091225;28;20028;-75
2023/01/21 08:28:31;;;;;;;5.50;2.70;;;;;;;;;;5091218;28;20043;-78
2023/01/21 08:31:08;;;;;;;8.30;2.70;;;;;;;;;;5091397;28;20025;-76
2023/01/21 08:33:33;;;;;;;3.80;2.20;;;;;;;;;;5090841;28;20078;-78
2023/01/21 08:36:00;;;;;;;7.88;2.45;;;;;;;;;;5091374;28;20124;-77
2023/01/21 08:38:26;;;;;;;6.15;2.40;;;;;;;;;;5091171;28;20020;-77
2023/01/21 08:40:51;;;;;;;8.32;2.50;;;;;;;;;;5091076;28;20545;-76
2023/01/21 08:43:17;;;;;;;4.22;2.20;;;;;;;;;;5090658;28;20063;-78
2023/01/21 08:45:42;;;;;;;9.95;2.70;;;;;;;;;;5090930;28;20091;-77
2023/01/21 08:48:07;;;;;;;4.30;2.10;;;;;;;;;;5090594;28;20081;-74
2023/01/21 08:50:33;;;;;;;6.00;2.47;;;;;;;;;;5090600;28;20054;-74
2023/01/21 08:52:58;;;;;;;6.35;2.22;;;;;;;;;;5090820;28;20077;-72
2023/01/21 08:55:25;;;;;;;5.63;2.22;;;;;;;;;;5090698;28;20031;-75
2023/01/21 08:57:54;;;;;;;5.03;2.40;;;;;;;;;;5090510;28;20028;-76
2023/01/21 09:00:21;;;;;;;6.30;2.20;;;;;;;;;;5090968;28;20494;-73
2023/01/21 09:02:46;;;;;;;5.07;2.17;;;;;;;;;;5089940;28;20512;-77
2023/01/21 09:05:11;;;;;;;6.85;2.08;;;;;;;;;;5090453;28;20032;-76
2023/01/21 09:07:37;;;;;;;9.05;2.20;;;;;;;;;;5071958;28;20468;-76
2023/01/21 09:10:04;;;;;;;6.18;2.40;;;;;;;;;;5090675;28;20051;-78
2023/01/21 09:12:30;;;;;;;6.28;2.22;;;;;;;;;;5090561;28;20027;-74
2023/01/21 09:14:55;;;;;;;4.80;2.20;;;;;;;;;;5090799;28;20032;-74
2023/01/21 09:17:21;;;;;;;3.88;1.92;;;;;;;;;;5090268;28;20928;-75
2023/01/21 09:19:47;;;;;;;3.65;2.03;;;;;;;;;;5090146;28;20044;-76
2023/01/21 09:22:12;;;;;;;7.32;2.10;;;;;;;;;;5090147;28;20403;-74
2023/01/21 09:24:38;;;;;;;6.15;2.25;;;;;;;;;;5072200;28;20101;-73
2023/01/21 09:27:05;;;;;;;6.38;2.22;;;;;;;;;;5089902;28;20399;-74
2023/01/21 09:29:31;;;;;;;6.65;2.78;;;;;;;;;;5090492;28;20024;-75
2023/01/21 09:31:56;;;;;;;8.13;2.63;;;;;;;;;;5090288;28;20020;-74
2023/01/21 09:34:22;;;;;;;5.45;2.40;;;;;;;;;;5089841;28;20055;-74
2023/01/21 09:36:47;;;;;;;11.10;3.00;;;;;;;;;;5090021;28;20034;-73
2023/01/21 09:39:13;;;;;;;6.00;2.72;;;;;;;;;;5090051;28;20020;-71
2023/01/21 09:41:50;;;;;;;5.13;2.38;;;;;;;;;;5090030;28;20135;-72
2023/01/21 09:44:42;;;;;;;7.30;3.03;;;;;;;;;;5089866;28;20402;-73
2023/01/21 09:47:10;;;;;;;7.10;3.25;;;;;;;;;;5089659;28;20119;-69
2023/01/21 09:49:43;;;;;;;6.93;3.30;;;;;;;;;;5089712;28;20020;-69
2023/01/21 09:52:35;;;;;;;7.03;3.00;;;;;;;;;;5089857;28;20028;-69
2023/01/21 09:55:02;;;;;;;7.78;3.00;;;;;;;;;;5090229;28;20372;-70
2023/01/21 09:57:50;;;;;;;8.93;3.08;;;;;;;;;;5089486;28;20024;-70
2023/01/21 10:00:21;;;;;;;7.88;2.80;;;;;;;;;;5089938;28;20040;-69
2023/01/21 10:02:55;;;;;;;5.53;2.53;;;;;;;;;;5089489;28;20526;-70
2023/01/21 10:05:23;;;;;;;6.43;2.58;;;;;;;;;;5089478;28;20032;-71
2023/01/21 10:08:15;;;;;;;6.15;2.88;;;;;;;;;;5089371;28;20031;-69
2023/01/21 10:10:45;;;;;;;8.20;2.67;;;;;;;;;;5051772;28;20044;-73
2023/01/21 10:13:14;;;;;;;6.68;2.67;;;;;;;;;;5090294;28;20051;-69
2023/01/21 10:16:12;;;;;;;6.18;2.85;;;;;;;;;;5094015;28;20043;-72
2023/01/21 10:18:40;;;;;;;4.90;2.70;;;;;;;;;;5081583;28;20044;-74
2023/01/21 10:21:37;;;;;;;9.25;2.92;;;;;;;;;;5102413;28;20035;-78
2023/01/21 10:24:19;;;;;;;7.03;2.92;;;;;;;;;;5090154;28;20039;-76
2023/01/21 10:26:48;;;;;;;12.98;3.20;;;;;;;;;;5093689;28;20028;-76
2023/01/21 10:29:18;;;;;;;7.40;3.35;;;;;;;;;;5093264;28;20052;-78
2023/01/21 10:31:53;;;;;;;7.20;2.70;;;;;;;;;;5093668;28;20368;-78
2023/01/21 10:34:19;;;;;;;6.95;2.65;;;;;;;;;;5093013;28;20516;-77
2023/01/21 10:37:07;;;;;;;8.65;3.00;;;;;;;;;;5093623;28;20031;-77
2023/01/21 10:39:44;;;;;;;5.15;2.67;;;;;;;;;;5093410;28;20016;-77
2023/01/21 10:42:24;;;;;;;4.72;2.78;;;;;;;;;;5093709;28;20028;-75
2023/01/21 10:44:49;;;;;;;8.40;2.83;;;;;;;;;;5093420;28;20491;-78
2023/01/21 10:47:38;;;;;;;5.55;2.78;;;;;;;;;;5093395;28;20044;-77
2023/01/21 10:50:18;;;;;;;5.80;2.53;;;;;;;;;;5092996;28;20024;-75
2023/01/21 10:52:56;;;;;;;5.28;2.47;;;;;;;;;;5093093;28;20073;-78
2023/01/21 10:55:27;;;;;;;5.55;2.70;;;;;;;;;;5093133;28;20392;-76
2023/01/21 10:57:58;;;;;;;5.75;2.55;;;;;;;;;;5092695;28;20099;-81
2023/01/21 11:00:31;;;;;;;5.95;3.03;;;;;;;;;;5092623;28;20020;-79
2023/01/21 11:03:02;;;;;;;5.97;2.92;;;;;;;;;;5092588;28;20764;-78
2023/01/21 11:05:29;;;;;;;8.02;2.90;;;;;;;;;;5092505;28;20039;-78
2023/01/21 11:07:56;;;;;;;5.30;2.50;;;;;;;;;;5092533;28;20020;-78
2023/01/21 11:10:23;;;;;;;6.68;2.70;;;;;;;;;;5074536;28;20657;-79
2023/01/21 11:12:49;;;;;;;4.88;2.53;;;;;;;;;;5092749;28;20020;-78
2023/01/21 11:15:17;;;;;;;8.35;2.65;;;;;;;;;;5092635;28;20028;-76
2023/01/21 11:17:46;;;;;;;6.43;2.30;;;;;;;;;;5092423;28;20024;-76
2023/01/21 11:20:39;;;;;;;5.82;2.33;;;;;;;;;;5091919;28;20032;-79
2023/01/21 11:23:21;;;;;;;7.68;2.88;;;;;;;;;;5092566;28;20493;-77
2023/01/21 11:25:47;;;;;;;8.98;3.00;;;;;;;;;;5091959;28;20053;-80
2023/01/21 11:28:25;;;;;;;9.10;2.83;;;;;;;;;;5092055;28;20021;-73
2023/01/21 11:31:02;;;;;;;7.32;2.85;;;;;;;;;;5092481;28;20020;-74
2023/01/21 11:33:28;;;;;;;9.70;2.90;;;;;;;;;;5073458;28;20067;-79
2023/01/21 11:35:54;;;;;;;9.07;3.00;;;;;;;;;;5074177;28;20054;-73
2023/01/21 11:38:28;;;;;;;5.88;2.80;;;;;;;;;;5091874;28;20031;-77
2023/01/21 11:41:04;;;;;;;7.35;2.97;;;;;;;;;;5092103;28;20094;-75
2023/01/21 11:43:43;;;;;;;6.15;2.90;;;;;;;;;;5092079;28;20130;-75
2023/01/21 11:46:35;;;;;;;9.63;3.20;;;;;;;;;;5092287;28;20024;-75
2023/01/21 11:49:06;;;;;;;7.78;3.00;;;;;;;;;;5091628;28;20077;-74
2023/01/21 11:51:32;;;;;;;6.25;2.92;;;;;;;;;;5092229;28;20040;-75
2023/01/21 11:54:18;;;;;;;7.60;3.17;;;;;;;;;;5092016;28;20145;-75
2023/01/21 11:56:55;;;;;;;7.47;2.85;;;;;;;;;;5092007;28;20020;-77
2023/01/21 11:59:34;;;;;;;7.75;2.90;;;;;;;;;;5073991;28;20073;-74
2023/01/21 12:02:41;;;;;;;6.93;3.25;;;;;;;;;;5073403;28;20040;-74
2023/01/21 12:05:26;;;;;;;9.98;3.63;;;;;;;;;;5008801;28;20029;-77
2023/01/21 12:07:51;;;;;;;8.60;4.20;;;;;;;;;;5009288;28;20054;-71
2023/01/21 12:10:34;;;;;;;8.80;4.43;;;;;;;;;;5059486;28;20073;-70
2023/01/21 12:13:14;;;;;;;9.13;4.35;;;;;;;;;;5091924;28;20548;-75
2023/01/21 12:15:55;;;;;;;12.20;5.13;;;;;;;;;;5091313;28;20500;-70
2023/01/21 12:18:35;;;;;;;9.63;4.88;;;;;;;;;;5091035;28;20020;-69
2023/01/21 12:21:32;;;;;;;16.20;5.90;;;;;;;;;;5091334;28;20107;-71
2023/01/21 12:24:18;;;;;;;11.55;5.20;;;;;;;;;;5062944;28;20032;-71
2023/01/21 12:26:49;;;;;;;10.40;5.00;;;;;;;;;;5091450;28;20032;-77
2023/01/21 12:29:36;;;;;;;10.45;5.25;;;;;;;;;;5072940;28;20509;-71
2023/01/21 12:32:25;;;;;;;12.80;5.20;;;;;;;;;;5091417;28;20024;-73
2023/01/21 12:35:08;;;;;;;11.88;5.75;;;;;;;;;;5090758;28;20032;-77
2023/01/21 12:37:41;;;;;;;14.82;5.57;;;;;;;;;;5090405;28;20073;-71
2023/01/21 12:40:39;;;;;;;10.98;5.10;;;;;;;;;;5090744;28;20018;-74
2023/01/21 12:43:13;;;;;;;11.35;4.80;;;;;;;;;;5072420;28;20439;-74
2023/01/21 12:45:52;;;;;;;10.10;4.50;;;;;;;;;;5072602;28;20552;-78
2023/01/21 12:48:28;;;;;;;11.68;5.10;;;;;;;;;;5090998;28;20028;-70
2023/01/21 12:51:01;;;;;;;10.80;5.03;;;;;;;;;;5090913;28;20032;-75
2023/01/21 12:53:38;;;;;;;12.27;5.30;;;;;;;;;;5091099;28;20099;-74
2023/01/21 12:56:39;;;;;;;8.05;4.57;;;;;;;;;;5090799;28;20039;-70
2023/01/21 12:59:29;;;;;;;11.00;4.85;;;;;;;;;;5064711;28;20079;-77
2023/01/21 13:02:15;;;;;;;11.70;5.03;;;;;;;;;;5091486;28;20467;-70
2023/01/21 13:04:48;;;;;;;11.50;5.10;;;;;;;;;;5090344;28;20075;-72
2023/01/21 13:07:32;;;;;;;10.65;5.07;;;;;;;;;;5091158;28;20038;-76
2023/01/21 13:10:03;;;;;;;10.05;4.90;;;;;;;;;;5090616;28;20074;-81
2023/01/21 13:12:29;;;;;;;;;;;;;;;;;;5091345;28;20082;-75
2023/01/21 13:15:16;;;;;;;12.98;5.80;;;;;;;;;;5090597;28;19912;-79
2023/01/21 13:17:47;;;;;;;13.02;5.80;;;;;;;;;;5090417;28;20021;-76
2023/01/21 13:20:20;;;;;;;10.52;5.93;;;;;;;;;;5071498;28;20028;-79
2023/01/21 13:22:49;;;;;;;10.90;5.80;;;;;;;;;;5090501;28;20056;-79
2023/01/21 13:25:17;;;;;;;11.43;6.47;;;;;;;;;;5090201;28;20108;-74
2023/01/21 13:28:21;;;;;;;12.10;6.38;;;;;;;;;;5090414;28;20676;-75
2023/01/21 13:31:00;;;;;;;14.60;7.03;;;;;;;;;;5090199;28;20522;-78
2023/01/21 13:33:44;;;;;;;14.52;6.47;;;;;;;;;;5089936;28;20031;-76
2023/01/21 13:36:19;;;;;;;13.35;7.03;;;;;;;;;;5071883;28;20024;-77
2023/01/21 13:39:00;;;;;;;11.90;6.32;;;;;;;;;;5089881;28;20412;-78
2023/01/21 13:41:57;;;;;;;14.80;6.68;;;;;;;;;;5089956;28;20507;-77
2023/01/21 13:44:48;;;;;;;13.20;6.53;;;;;;;;;;5073714;28;20116;-78
2023/01/21 13:47:32;;;;;;;13.18;6.57;;;;;;;;;;5089844;28;20070;-76
2023/01/21 13:50:14;;;;;;;13.65;6.65;;;;;;;;;;5089488;28;20085;-77
2023/01/21 13:52:45;;;;;;;10.88;6.60;;;;;;;;;;5089856;28;20034;-74
2023/01/21 13:55:30;;;;;;;12.75;6.70;;;;;;;;;;5089735;28;20085;-79
2023/01/21 13:58:08;;;;;;;9.38;5.72;;;;;;;;;;5090041;28;20028;-77
2023/01/21 14:00:48;;;;;;;10.07;5.75;;;;;;;;;;5089160;28;20410;-78
2023/01/21 14:03:47;;;;;;;11.43;5.22;;;;;;;;;;5089938;28;20400;-77
2023/01/21 14:06:24;;;;;;;10.18;5.28;;;;;;;;;;5089652;28;20032;-76
2023/01/21 14:08:54;;;;;;;8.73;4.78;;;;;;;;;;5089731;28;20717;-80
2023/01/21 14:11:48;;;;;;;8.65;4.65;;;;;;;;;;5089721;28;20146;-78
2023/01/21 14:14:38;;;;;;;9.35;4.55;;;;;;;;;;5086507;28;20040;-77
2023/01/21 14:17:09;;;;;;;8.00;4.63;;;;;;;;;;5089315;28;20036;-77
2023/01/21 14:20:02;;;;;;;7.78;4.43;;;;;;;;;;5089144;28;20066;-78
2023/01/21 14:22:43;;;;;;;9.05;4.72;;;;;;;;;;5089638;28;20024;-76
2023/01/21 14:25:30;;;;;;;8.48;4.78;;;;;;;;;;5089504;28;20127;-74
2023/01/21 14:28:13;;;;;;;9.13;4.65;;;;;;;;;;5089909;28;20115;-77
2023/01/21 14:30:43;;;;;;;7.13;4.30;;;;;;;;;;5089156;28;20032;-73
2023/01/21 14:33:24;;;;;;;8.30;3.90;;;;;;;;;;5089645;28;20020;-76
2023/01/21 14:36:28;;;;;;;6.90;3.92;;;;;;;;;;5089408;28;20032;-76
2023/01/21 14:39:12;;;;;;;7.75;3.90;;;;;;;;;;5085184;28;20050;-77
2023/01/21 14:41:59;;;;;;;10.13;4.15;;;;;;;;;;5089495;28;20077;-76
2023/01/21 14:44:47;;;;;;;6.85;3.80;;;;;;;;;;5089469;28;20066;-75
2023/01/21 14:47:23;;;;;;;7.18;3.88;;;;;;;;;;5078265;28;20499;-78
2023/01/21 14:49:51;;;;;;;6.05;4.03;;;;;;;;;;5089004;28;20074;-76
2023/01/21 14:52:38;;;;;;;6.38;3.75;;;;;;;;;;5088826;28;20098;-77
2023/01/21 14:55:22;;;;;;;8.45;4.18;;;;;;;;;;5088570;28;20040;-76
2023/01/21 14:57:51;;;;;;;7.10;4.00;;;;;;;;;;5091105;28;20059;-75
2023/01/21 15:00:26;;;;;;;8.75;4.10;;;;;;;;;;5091150;28;20016;-73
2023/01/21 15:03:05;;;;;;;7.88;4.00;;;;;;;;;;5100182;28;20070;-69
2023/01/21 15:05:35;;;;;;;5.82;3.60;;;;;;;;;;5092245;28;20499;-74
2023/01/21 15:08:26;;;;;;;5.10;3.28;;;;;;;;;;5093095;28;20032;-69